Aviation Digital Data Service (ADDS)

Output produced by METARs form (0114 UTC 30 August 2016)
found at http://www.aviationweather.gov/adds/metars/
 
KORD 300059Z 3001/3106 05004KT P6SM FEW045 SCT100 BKN150 
     FM300200 11003KT P6SM FEW050 SCT120 BKN250 
     FM300700 33002KT 4SM BR SCT250 
     FM301400 24005KT P6SM SCT040 BKN080 
     FM301800 26007KT P6SM VCSH BKN035 
     PROB30 3018/3024 2SM TSRA SCT020 OVC030CB 
     FM310000 25005KT P6SM SCT035 BKN150